Terminal Aerodrome Forecast
Issued by NWS Cleveland, OH

Home | Current Version | Previous Version | Text Only | Print | Product List | Glossary On
Versions: 1 2 3 4 5 6 7 8 9 10 11 12 13 14 15
000
FTUS41 KCLE 291722
TAFMFD
TAF
KMFD 291722Z 2918/3018 36004KT P6SM VCTS BKN045CB
     FM292300 VRB03KT P6SM SCT060 BKN100
     FM300300 00000KT 4SM BR SCT100
     FM301400 VRB03KT P6SM BKN040=

USA.gov is the U.S. government's official web portal to all federal, state and local government web resources and services.